sensor_id;sensor_type;location;lat;lon;timestamp;pressure;altitude;pressure_sealevel;temperature;humidity
54562;BME280;69047;53.358;-1.486;2023-07-22T16:48:08;99266.66;;;19.38;67.09
54562;BME280;69047;53.358;-1.486;2023-07-22T16:50:34;99258.56;;;18.72;69.35
54562;BME280;69047;53.358;-1.486;2023-07-22T16:52:59;99253.84;;;18.40;70.07
54562;BME280;69047;53.358;-1.486;2023-07-22T16:55:28;99244.78;;;18.06;72.41
54562;BME280;69047;53.358;-1.486;2023-07-22T16:57:53;99246.94;;;18.01;72.87
54562;BME280;69047;53.358;-1.486;2023-07-22T17:00:19;99245.25;;;18.08;72.80
54562;BME280;69047;53.358;-1.486;2023-07-22T17:02:45;99235.03;;;17.76;73.89
54562;BME280;69047;53.358;-1.486;2023-07-22T17:05:10;99236.59;;;17.56;74.40
54562;BME280;69047;53.358;-1.486;2023-07-22T17:07:38;99236.50;;;17.74;74.79
54562;BME280;69047;53.358;-1.486;2023-07-22T17:10:04;99240.16;;;17.98;73.14
54562;BME280;69047;53.358;-1.486;2023-07-22T17:12:30;99233.03;;;17.85;73.98
54562;BME280;69047;53.358;-1.486;2023-07-22T17:14:55;99221.34;;;17.76;74.15
54562;BME280;69047;53.358;-1.486;2023-07-22T17:17:21;99224.44;;;17.66;75.21
54562;BME280;69047;53.358;-1.486;2023-07-22T17:19:50;99222.88;;;17.86;75.40
54562;BME280;69047;53.358;-1.486;2023-07-22T17:22:15;99222.66;;;17.91;74.48
54562;BME280;69047;53.358;-1.486;2023-07-22T17:24:44;99212.09;;;17.81;74.65
54562;BME280;69047;53.358;-1.486;2023-07-22T17:27:09;99219.06;;;17.78;75.73
54562;BME280;69047;53.358;-1.486;2023-07-22T17:29:34;99210.09;;;17.90;75.25
54562;BME280;69047;53.358;-1.486;2023-07-22T17:32:00;99207.03;;;18.12;73.65
54562;BME280;69047;53.358;-1.486;2023-07-22T17:34:25;99204.94;;;18.30;72.87
54562;BME280;69047;53.358;-1.486;2023-07-22T17:36:51;99206.19;;;18.32;72.88
54562;BME280;69047;53.358;-1.486;2023-07-22T17:39:16;99208.34;;;18.27;72.88
54562;BME280;69047;53.358;-1.486;2023-07-22T17:41:42;99197.78;;;18.16;73.56
54562;BME280;69047;53.358;-1.486;2023-07-22T17:44:07;99206.31;;;18.36;72.07
54562;BME280;69047;53.358;-1.486;2023-07-22T17:46:34;99202.75;;;18.02;74.07
54562;BME280;69047;53.358;-1.486;2023-07-22T17:49:00;99196.78;;;18.21;72.88
54562;BME280;69047;53.358;-1.486;2023-07-22T17:51:25;99198.09;;;18.36;72.25
54562;BME280;69047;53.358;-1.486;2023-07-22T17:53:51;99195.34;;;18.36;72.29
54562;BME280;69047;53.358;-1.486;2023-07-22T17:56:16;99195.19;;;18.53;71.91
54562;BME280;69047;53.358;-1.486;2023-07-22T17:58:41;99191.03;;;18.47;72.03
54562;BME280;69047;53.358;-1.486;2023-07-22T18:01:07;99192.88;;;18.43;73.40
54562;BME280;69047;53.358;-1.486;2023-07-22T18:03:32;99188.53;;;18.42;72.44
54562;BME280;69047;53.358;-1.486;2023-07-22T18:05:58;99197.97;;;18.65;72.26
54562;BME280;69047;53.358;-1.486;2023-07-22T18:08:23;99183.31;;;18.49;72.44
54562;BME280;69047;53.358;-1.486;2023-07-22T18:10:49;99185.78;;;18.42;72.09
54562;BME280;69047;53.358;-1.486;2023-07-22T18:13:14;99181.84;;;17.98;74.00
54562;BME280;69047;53.358;-1.486;2023-07-22T18:15:39;99173.59;;;18.18;74.27
54562;BME280;69047;53.358;-1.486;2023-07-22T18:18:05;99174.44;;;17.78;75.55
54562;BME280;69047;53.358;-1.486;2023-07-22T18:20:30;99166.41;;;17.93;75.31
54562;BME280;69047;53.358;-1.486;2023-07-22T18:22:56;99166.72;;;17.80;76.58
54562;BME280;69047;53.358;-1.486;2023-07-22T18:25:22;99165.06;;;17.99;76.24
54562;BME280;69047;53.358;-1.486;2023-07-22T18:27:47;99169.22;;;17.85;76.82
54562;BME280;69047;53.358;-1.486;2023-07-22T18:30:13;99162.81;;;17.81;77.00
54562;BME280;69047;53.358;-1.486;2023-07-22T18:32:38;99159.81;;;17.94;76.41
54562;BME280;69047;53.358;-1.486;2023-07-22T18:35:04;99155.81;;;17.71;77.93
54562;BME280;69047;53.358;-1.486;2023-07-22T18:37:30;99149.13;;;17.81;77.21
54562;BME280;69047;53.358;-1.486;2023-07-22T18:39:56;99158.75;;;17.66;77.68
54562;BME280;69047;53.358;-1.486;2023-07-22T18:42:22;99154.59;;;17.81;77.85
54562;BME280;69047;53.358;-1.486;2023-07-22T18:44:47;99148.28;;;17.68;78.49
54562;BME280;69047;53.358;-1.486;2023-07-22T18:47:13;99146.50;;;17.84;77.43
54562;BME280;69047;53.358;-1.486;2023-07-22T18:49:39;99139.03;;;17.93;77.68
54562;BME280;69047;53.358;-1.486;2023-07-22T18:52:05;99145.19;;;17.90;77.06
54562;BME280;69047;53.358;-1.486;2023-07-22T18:54:31;99145.47;;;17.77;77.79
54562;BME280;69047;53.358;-1.486;2023-07-22T18:56:56;99131.09;;;17.80;77.71
54562;BME280;69047;53.358;-1.486;2023-07-22T18:59:22;99140.09;;;17.80;78.29
54562;BME280;69047;53.358;-1.486;2023-07-22T19:01:47;99127.25;;;17.93;77.56
54562;BME280;69047;53.358;-1.486;2023-07-22T19:04:13;99132.44;;;17.53;78.74
54562;BME280;69047;53.358;-1.486;2023-07-22T19:06:39;99129.06;;;17.56;78.65
54562;BME280;69047;53.358;-1.486;2023-07-22T19:09:04;99125.19;;;17.48;79.30
54562;BME280;69047;53.358;-1.486;2023-07-22T19:11:30;99119.72;;;17.28;80.32
54562;BME280;69047;53.358;-1.486;2023-07-22T19:13:56;99120.91;;;17.18;81.05
54562;BME280;69047;53.358;-1.486;2023-07-22T19:16:24;99114.69;;;17.30;81.56
54562;BME280;69047;53.358;-1.486;2023-07-22T19:18:50;99111.06;;;17.26;81.64
54562;BME280;69047;53.358;-1.486;2023-07-22T19:21:15;99111.44;;;17.15;82.20
54562;BME280;69047;53.358;-1.486;2023-07-22T19:23:41;99102.78;;;17.34;81.04
54562;BME280;69047;53.358;-1.486;2023-07-22T19:26:06;99104.91;;;17.49;80.77
54562;BME280;69047;53.358;-1.486;2023-07-22T19:28:32;99101.69;;;17.56;79.82
54562;BME280;69047;53.358;-1.486;2023-07-22T19:30:57;99084.44;;;17.35;80.25
54562;BME280;69047;53.358;-1.486;2023-07-22T19:33:23;99085.09;;;17.11;81.81
54562;BME280;69047;53.358;-1.486;2023-07-22T19:36:04;99082.81;;;17.34;81.55
54562;BME280;69047;53.358;-1.486;2023-07-22T19:38:30;99077.06;;;17.47;80.82
54562;BME280;69047;53.358;-1.486;2023-07-22T19:43:30;99082.09;;;17.66;79.47
54562;BME280;69047;53.358;-1.486;2023-07-22T19:46:03;99077.28;;;17.63;79.76
54562;BME280;69047;53.358;-1.486;2023-07-22T19:48:30;99073.56;;;17.47;80.55
54562;BME280;69047;53.358;-1.486;2023-07-22T19:50:58;99070.31;;;17.03;81.29
54562;BME280;69047;53.358;-1.486;2023-07-22T19:53:23;99074.34;;;17.27;81.51
54562;BME280;69047;53.358;-1.486;2023-07-22T19:55:49;99073.47;;;17.14;80.98
54562;BME280;69047;53.358;-1.486;2023-07-22T19:58:14;99066.53;;;17.17;81.29
54562;BME280;69047;53.358;-1.486;2023-07-22T20:00:40;99074.66;;;17.04;81.63
54562;BME280;69047;53.358;-1.486;2023-07-22T20:03:06;99079.56;;;17.20;81.80
54562;BME280;69047;53.358;-1.486;2023-07-22T20:05:31;99063.88;;;17.29;81.31
54562;BME280;69047;53.358;-1.486;2023-07-22T20:07:57;99065.28;;;17.35;80.45
54562;BME280;69047;53.358;-1.486;2023-07-22T20:10:22;99058.31;;;17.37;80.98
54562;BME280;69047;53.358;-1.486;2023-07-22T20:12:49;99055.91;;;17.56;80.09
54562;BME280;69047;53.358;-1.486;2023-07-22T20:15:14;99059.91;;;17.38;81.10
54562;BME280;69047;53.358;-1.486;2023-07-22T20:17:40;99058.53;;;17.32;80.86
54562;BME280;69047;53.358;-1.486;2023-07-22T20:20:06;99056.78;;;17.28;80.91
54562;BME280;69047;53.358;-1.486;2023-07-22T20:22:31;99054.84;;;17.07;81.85
54562;BME280;69047;53.358;-1.486;2023-07-22T20:24:57;99056.66;;;17.03;81.82
54562;BME280;69047;53.358;-1.486;2023-07-22T20:27:22;99048.50;;;17.15;81.90
54562;BME280;69047;53.358;-1.486;2023-07-22T20:29:47;99049.84;;;17.30;81.56
54562;BME280;69047;53.358;-1.486;2023-07-22T20:32:13;99045.03;;;17.27;81.57
54562;BME280;69047;53.358;-1.486;2023-07-22T20:34:38;99055.78;;;17.11;82.08
54562;BME280;69047;53.358;-1.486;2023-07-22T20:37:04;99054.44;;;16.97;82.67
54562;BME280;69047;53.358;-1.486;2023-07-22T20:39:30;99049.81;;;16.89;82.43
54562;BME280;69047;53.358;-1.486;2023-07-22T20:41:55;99046.38;;;17.00;82.97
54562;BME280;69047;53.358;-1.486;2023-07-22T20:44:21;99046.88;;;16.94;82.59
54562;BME280;69047;53.358;-1.486;2023-07-22T20:46:47;99041.78;;;16.92;83.11
54562;BME280;69047;53.358;-1.486;2023-07-22T20:49:12;99044.84;;;17.11;82.41
54562;BME280;69047;53.358;-1.486;2023-07-22T20:51:38;99049.78;;;17.18;82.88
54562;BME280;69047;53.358;-1.486;2023-07-22T20:54:04;99046.50;;;17.04;82.51
54562;BME280;69047;53.358;-1.486;2023-07-22T20:56:29;99040.66;;;16.93;82.97
54562;BME280;69047;53.358;-1.486;2023-07-22T20:58:55;99042.25;;;17.15;82.96
54562;BME280;69047;53.358;-1.486;2023-07-22T21:01:21;99037.63;;;17.07;82.60
54562;BME280;69047;53.358;-1.486;2023-07-22T21:03:46;99030.44;;;17.23;81.96
54562;BME280;69047;53.358;-1.486;2023-07-22T21:06:12;99027.03;;;17.05;83.09
54562;BME280;69047;53.358;-1.486;2023-07-22T21:08:38;99025.91;;;17.06;83.12
54562;BME280;69047;53.358;-1.486;2023-07-22T21:11:03;99026.91;;;17.02;82.81
54562;BME280;69047;53.358;-1.486;2023-07-22T21:13:29;99022.22;;;17.02;83.02
54562;BME280;69047;53.358;-1.486;2023-07-22T21:16:01;99014.88;;;17.36;81.95
54562;BME280;69047;53.358;-1.486;2023-07-22T21:18:27;99025.28;;;17.01;82.71
54562;BME280;69047;53.358;-1.486;2023-07-22T21:20:53;99012.50;;;17.13;82.49
54562;BME280;69047;53.358;-1.486;2023-07-22T21:23:18;99017.09;;;17.01;82.22
54562;BME280;69047;53.358;-1.486;2023-07-22T21:25:43;99009.69;;;17.01;82.83
54562;BME280;69047;53.358;-1.486;2023-07-22T21:28:09;99013.75;;;16.95;82.80
54562;BME280;69047;53.358;-1.486;2023-07-22T21:30:34;99013.81;;;17.28;82.34
54562;BME280;69047;53.358;-1.486;2023-07-22T21:32:59;99008.22;;;17.04;82.75
54562;BME280;69047;53.358;-1.486;2023-07-22T21:35:25;99003.69;;;16.87;82.80
54562;BME280;69047;53.358;-1.486;2023-07-22T21:37:50;99000.75;;;16.92;83.22
54562;BME280;69047;53.358;-1.486;2023-07-22T21:40:16;98999.41;;;16.98;83.29
54562;BME280;69047;53.358;-1.486;2023-07-22T21:42:41;98992.00;;;17.20;81.71
54562;BME280;69047;53.358;-1.486;2023-07-22T21:45:09;98991.00;;;17.03;82.56
54562;BME280;69047;53.358;-1.486;2023-07-22T21:47:35;98987.31;;;16.99;82.68
54562;BME280;69047;53.358;-1.486;2023-07-22T21:50:01;98988.47;;;16.98;82.48
54562;BME280;69047;53.358;-1.486;2023-07-22T21:52:26;98981.34;;;16.85;83.13
54562;BME280;69047;53.358;-1.486;2023-07-22T21:54:52;98981.91;;;17.11;82.66
54562;BME280;69047;53.358;-1.486;2023-07-22T21:57:17;98977.78;;;16.85;82.60
54562;BME280;69047;53.358;-1.486;2023-07-22T21:59:43;98984.63;;;17.20;82.04
54562;BME280;69047;53.358;-1.486;2023-07-22T22:02:09;98976.06;;;17.22;81.60
54562;BME280;69047;53.358;-1.486;2023-07-22T22:04:37;98967.47;;;16.90;82.16
54562;BME280;69047;53.358;-1.486;2023-07-22T22:07:02;98972.41;;;16.76;83.06
54562;BME280;69047;53.358;-1.486;2023-07-22T22:09:28;98967.78;;;16.68;83.44
54562;BME280;69047;53.358;-1.486;2023-07-22T22:11:53;98963.31;;;16.64;83.20
54562;BME280;69047;53.358;-1.486;2023-07-22T22:14:18;98959.47;;;16.85;82.93
54562;BME280;69047;53.358;-1.486;2023-07-22T22:16:44;98963.72;;;16.95;82.36
54562;BME280;69047;53.358;-1.486;2023-07-22T22:19:09;98960.13;;;16.82;82.61
54562;BME280;69047;53.358;-1.486;2023-07-22T22:21:34;98959.66;;;17.01;81.72
54562;BME280;69047;53.358;-1.486;2023-07-22T22:24:00;98951.06;;;16.90;82.15
54562;BME280;69047;53.358;-1.486;2023-07-22T22:26:25;98952.47;;;16.96;82.01
54562;BME280;69047;53.358;-1.486;2023-07-22T22:28:51;98948.88;;;16.84;82.31
54562;BME280;69047;53.358;-1.486;2023-07-22T22:31:17;98952.13;;;16.98;82.32
54562;BME280;69047;53.358;-1.486;2023-07-22T22:33:42;98956.53;;;17.11;81.79
54562;BME280;69047;53.358;-1.486;2023-07-22T22:36:08;98943.00;;;16.73;82.25
54562;BME280;69047;53.358;-1.486;2023-07-22T22:38:33;98944.06;;;16.81;83.24
54562;BME280;69047;53.358;-1.486;2023-07-22T22:40:59;98942.81;;;16.78;82.88
54562;BME280;69047;53.358;-1.486;2023-07-22T22:43:24;98945.72;;;16.73;82.71
54562;BME280;69047;53.358;-1.486;2023-07-22T22:45:50;98944.81;;;16.90;82.79
54562;BME280;69047;53.358;-1.486;2023-07-22T22:48:15;98941.31;;;17.01;81.75
54562;BME280;69047;53.358;-1.486;2023-07-22T22:50:44;98932.78;;;16.62;82.55
54562;BME280;69047;53.358;-1.486;2023-07-22T22:53:10;98933.94;;;16.61;83.26
54562;BME280;69047;53.358;-1.486;2023-07-22T22:55:36;98922.44;;;16.67;82.67
54562;BME280;69047;53.358;-1.486;2023-07-22T22:58:01;98920.66;;;16.71;83.07
54562;BME280;69047;53.358;-1.486;2023-07-22T23:00:26;98923.25;;;16.68;82.32
54562;BME280;69047;53.358;-1.486;2023-07-22T23:02:53;98918.69;;;16.51;83.88
54562;BME280;69047;53.358;-1.486;2023-07-22T23:05:19;98917.34;;;16.66;83.42
54562;BME280;69047;53.358;-1.486;2023-07-22T23:07:44;98906.47;;;16.57;83.52
54562;BME280;69047;53.358;-1.486;2023-07-22T23:10:10;98907.78;;;16.51;83.61
54562;BME280;69047;53.358;-1.486;2023-07-22T23:12:35;98908.66;;;16.34;84.06
54562;BME280;69047;53.358;-1.486;2023-07-22T23:15:06;98900.97;;;16.36;84.00
54562;BME280;69047;53.358;-1.486;2023-07-22T23:17:32;98900.81;;;16.33;83.33
54562;BME280;69047;53.358;-1.486;2023-07-22T23:19:57;98891.09;;;16.44;82.99
54562;BME280;69047;53.358;-1.486;2023-07-22T23:22:23;98897.84;;;16.17;83.79
54562;BME280;69047;53.358;-1.486;2023-07-22T23:24:48;98897.44;;;16.36;83.53
54562;BME280;69047;53.358;-1.486;2023-07-22T23:27:14;98892.34;;;16.26;84.00
54562;BME280;69047;53.358;-1.486;2023-07-22T23:29:42;98889.81;;;16.21;84.01
54562;BME280;69047;53.358;-1.486;2023-07-22T23:32:08;98889.22;;;16.36;83.16
54562;BME280;69047;53.358;-1.486;2023-07-22T23:34:34;98883.75;;;16.36;83.48
54562;BME280;69047;53.358;-1.486;2023-07-22T23:36:59;98878.69;;;16.46;83.29
54562;BME280;69047;53.358;-1.486;2023-07-22T23:39:25;98877.16;;;16.37;83.29
54562;BME280;69047;53.358;-1.486;2023-07-22T23:41:50;98873.66;;;16.36;82.80
54562;BME280;69047;53.358;-1.486;2023-07-22T23:44:16;98873.44;;;16.41;83.24
54562;BME280;69047;53.358;-1.486;2023-07-22T23:46:41;98859.44;;;16.43;82.24
54562;BME280;69047;53.358;-1.486;2023-07-22T23:49:06;98862.44;;;16.50;82.33
54562;BME280;69047;53.358;-1.486;2023-07-22T23:51:32;98856.69;;;16.22;83.09
54562;BME280;69047;53.358;-1.486;2023-07-22T23:53:57;98858.16;;;16.20;83.06
54562;BME280;69047;53.358;-1.486;2023-07-22T23:56:22;98862.16;;;16.43;82.31
54562;BME280;69047;53.358;-1.486;2023-07-22T23:58:48;98841.38;;;16.30;82.01
